createdAt,value
2018-03-07T00:00:16.716Z,81.28
2018-03-07T00:02:18.770Z,80.71
2018-03-07T00:04:20.415Z,80.61
2018-03-07T00:06:22.182Z,81.09
2018-03-07T00:08:23.913Z,80.99
2018-03-07T00:10:25.880Z,80.61
2018-03-07T00:12:27.847Z,80.52
2018-03-07T00:14:29.592Z,80.61
2018-03-07T00:16:31.325Z,80.33
2018-03-07T00:18:33.493Z,80.42
2018-03-07T00:20:35.266Z,80.33
2018-03-07T00:22:37.039Z,80.33
2018-03-07T00:24:39.066Z,79.85
2018-03-07T00:26:41.129Z,79.85
2018-03-07T00:28:42.918Z,80.42
2018-03-07T00:30:44.643Z,80.61
2018-03-07T00:32:46.279Z,80.90
2018-03-07T00:34:47.959Z,80.80
2018-03-07T00:36:49.915Z,80.52
2018-03-07T00:38:51.639Z,80.13
2018-03-07T00:40:53.415Z,80.71
2018-03-07T00:42:55.480Z,80.90
2018-03-07T00:44:58.053Z,81.28
2018-03-07T00:46:59.726Z,81.18
2018-03-07T00:49:01.471Z,81.18
2018-03-07T00:51:03.148Z,81.47
2018-03-07T00:53:04.924Z,80.90
2018-03-07T00:55:06.651Z,80.99
2018-03-07T00:57:08.253Z,81.28
2018-03-07T00:59:10.310Z,81.95
2018-03-07T01:01:12.087Z,81.66
2018-03-07T01:03:13.945Z,81.37
2018-03-07T01:05:15.669Z,81.37
2018-03-07T01:07:17.414Z,81.76
2018-03-07T01:09:19.111Z,81.76
2018-03-07T01:11:21.277Z,81.28
2018-03-07T01:13:23.411Z,81.37
2018-03-07T01:15:25.104Z,80.90
2018-03-07T01:17:26.896Z,81.18
2018-03-07T01:19:28.839Z,81.18
2018-03-07T01:21:30.595Z,81.28
2018-03-07T01:23:32.303Z,81.95
2018-03-07T01:25:34.035Z,81.09
2018-03-07T01:27:36.078Z,81.18
2018-03-07T01:29:37.931Z,81.28
2018-03-07T01:31:39.649Z,81.37
2018-03-07T01:33:41.258Z,80.90
2018-03-07T01:35:43.386Z,81.37
2018-03-07T01:37:45.173Z,80.90
2018-03-07T01:39:46.951Z,80.80
2018-03-07T01:41:48.773Z,80.61
2018-03-07T01:43:50.793Z,80.80
2018-03-07T01:45:52.378Z,80.90
2018-03-07T01:47:54.079Z,80.61
2018-03-07T01:49:55.736Z,80.90
2018-03-07T01:51:57.666Z,80.80
2018-03-07T01:53:59.600Z,80.33
2018-03-07T01:56:01.243Z,80.52
2018-03-07T01:58:02.894Z,79.57
2018-03-07T02:00:04.636Z,79.75
2018-03-07T02:02:06.283Z,80.23
2018-03-07T02:04:08.371Z,80.61
2018-03-07T02:06:10.041Z,80.90
2018-03-07T02:08:11.815Z,80.80
2018-03-07T02:10:13.550Z,80.80
2018-03-07T02:12:15.627Z,80.52
2018-03-07T02:14:17.395Z,80.76
2018-03-07T02:16:19.099Z,81.90
2018-03-07T02:18:21.086Z,83.39
2018-03-07T02:20:22.769Z,83.48
2018-03-07T02:22:24.566Z,83.95
2018-03-07T02:24:27.213Z,84.43
2018-03-07T02:26:28.843Z,84.05
2018-03-07T02:28:30.923Z,83.67
2018-03-07T02:30:32.633Z,83.48
2018-03-07T02:32:34.345Z,83.67
2018-03-07T02:34:36.426Z,83.76
2018-03-07T02:36:38.491Z,82.53
2018-03-07T02:38:40.240Z,82.05
2018-03-07T02:40:42.002Z,81.77
2018-03-07T02:42:44.158Z,81.86
2018-03-07T02:44:45.924Z,80.63
2018-03-07T02:46:47.995Z,80.44
2018-03-07T02:48:49.670Z,80.05
2018-03-07T02:50:51.374Z,79.68
2018-03-07T02:52:53.082Z,80.05
2018-03-07T02:54:54.747Z,80.05
2018-03-07T02:56:56.607Z,80.05
2018-03-07T02:58:58.273Z,79.68
2018-03-07T03:01:00.002Z,79.58
2018-03-07T03:03:01.706Z,77.97
2018-03-07T03:05:03.674Z,78.11
2018-03-07T03:07:05.430Z,78.59
2018-03-07T03:09:07.581Z,78.69
2018-03-07T03:11:09.640Z,79.73
2018-03-07T03:13:11.413Z,79.83
2018-03-07T03:15:13.550Z,80.40
2018-03-07T03:17:15.241Z,79.83
2018-03-07T03:19:16.946Z,80.21
2018-03-07T03:21:18.718Z,80.49
2018-03-07T03:23:20.448Z,80.49
2018-03-07T03:25:22.176Z,80.21
2018-03-07T03:27:24.343Z,79.92
2018-03-07T03:29:26.099Z,80.87
2018-03-07T03:31:27.825Z,80.96
2018-03-07T03:33:29.576Z,80.77
2018-03-07T03:35:31.660Z,80.49
2018-03-07T03:37:33.393Z,80.77
2018-03-07T03:39:35.411Z,81.25
2018-03-07T03:41:37.580Z,80.30
2018-03-07T03:43:39.334Z,80.11
2018-03-07T03:45:41.467Z,79.83
2018-03-07T03:47:43.265Z,79.73
2018-03-07T03:49:45.039Z,80.30
2018-03-07T03:51:46.712Z,79.54
2018-03-07T03:53:48.380Z,79.44
2018-03-07T03:55:50.052Z,79.63
2018-03-07T03:57:51.746Z,79.63
2018-03-07T03:59:53.506Z,79.73
2018-03-07T04:01:55.218Z,79.83
2018-03-07T04:03:56.986Z,79.25
2018-03-07T04:05:58.786Z,79.16
2018-03-07T04:08:00.529Z,79.69
2018-03-07T04:10:02.181Z,80.45
2018-03-07T04:12:03.940Z,79.79
2018-03-07T04:14:05.723Z,79.50
2018-03-07T04:16:07.402Z,79.79
2018-03-07T04:18:09.544Z,79.60
2018-03-07T04:20:11.637Z,79.50
2018-03-07T04:22:13.312Z,79.41
2018-03-07T04:24:15.350Z,79.88
2018-03-07T04:26:17.021Z,80.26
2018-03-07T04:28:18.713Z,81.30
2018-03-07T04:30:20.419Z,81.97
2018-03-07T04:32:22.112Z,83.11
2018-03-07T04:34:24.335Z,84.11
2018-03-07T04:36:26.039Z,84.87
2018-03-07T04:38:27.738Z,85.11
2018-03-07T04:40:29.503Z,84.49
2018-03-07T04:42:31.268Z,84.34
2018-03-07T04:44:32.973Z,83.39
2018-03-07T04:46:34.636Z,83.30
2018-03-07T04:48:36.300Z,83.30
2018-03-07T04:50:37.973Z,84.53
2018-03-07T04:52:39.738Z,84.53
2018-03-07T04:54:41.486Z,83.78
2018-03-07T04:56:43.285Z,84.16
2018-03-07T04:58:44.959Z,84.25
2018-03-07T05:00:46.642Z,84.16
2018-03-07T05:02:48.300Z,84.44
2018-03-07T05:04:50.013Z,85.58
2018-03-07T05:06:51.788Z,86.34
2018-03-07T05:08:53.997Z,87.05
2018-03-07T05:10:56.236Z,86.30
2018-03-07T05:12:58.459Z,86.96
2018-03-07T05:15:00.214Z,88.39
2018-03-07T05:17:02.629Z,88.48
2018-03-07T05:19:04.381Z,88.10
2018-03-07T05:21:06.093Z,87.72
2018-03-07T05:23:07.760Z,87.34
2018-03-07T05:25:10.026Z,87.24
2018-03-07T05:27:11.737Z,87.53
2018-03-07T05:29:13.404Z,89.14
2018-03-07T05:31:15.232Z,89.24
2018-03-07T05:33:17.022Z,88.76
2018-03-07T05:35:18.657Z,88.48
2018-03-07T05:37:20.390Z,88.67
2018-03-07T05:39:22.118Z,88.39
2018-03-07T05:41:23.831Z,88.39
2018-03-07T05:43:25.421Z,88.24
2018-03-07T05:45:27.637Z,89.00
2018-03-07T05:47:29.275Z,90.19
2018-03-07T05:49:31.023Z,91.24
2018-03-07T05:51:32.770Z,91.52
2018-03-07T05:53:34.472Z,91.61
2018-03-07T05:55:36.211Z,92.18
2018-03-07T05:57:37.880Z,91.90
2018-03-07T05:59:40.172Z,91.90
2018-03-07T06:01:41.930Z,92.76
2018-03-07T06:03:43.633Z,92.85
2018-03-07T06:05:45.420Z,93.75
2018-03-07T06:07:47.967Z,93.84
2018-03-07T06:09:49.747Z,94.04
2018-03-07T06:11:51.343Z,94.23
2018-03-07T06:13:52.999Z,94.51
2018-03-07T06:15:54.719Z,95.17
2018-03-07T06:17:56.392Z,94.98
2018-03-07T06:19:58.010Z,95.26
2018-03-07T06:21:59.792Z,95.17
2018-03-07T06:24:02.124Z,94.60
2018-03-07T06:26:03.817Z,94.42
2018-03-07T06:28:05.508Z,94.51
2018-03-07T06:30:07.193Z,94.13
2018-03-07T06:32:08.871Z,93.08
2018-03-07T06:34:10.615Z,93.27
2018-03-07T06:36:12.270Z,93.94
2018-03-07T06:38:14.600Z,93.18
2018-03-07T06:40:16.420Z,93.08
2018-03-07T06:42:18.027Z,93.46
2018-03-07T06:44:19.735Z,92.09
2018-03-07T06:46:21.769Z,91.57
2018-03-07T06:48:23.560Z,91.28
2018-03-07T06:50:26.599Z,90.81
2018-03-07T06:52:28.281Z,91.71
2018-03-07T06:54:30.008Z,91.80
2018-03-07T06:56:33.706Z,91.71
2018-03-07T06:58:35.418Z,90.76
2018-03-07T07:00:38.790Z,89.91
2018-03-07T07:02:40.507Z,89.25
2018-03-07T07:04:42.224Z,88.43
2018-03-07T07:06:44.007Z,87.20
2018-03-07T07:08:45.684Z,86.82
2018-03-07T07:10:47.336Z,86.91
2018-03-07T07:12:52.041Z,85.68
2018-03-07T07:14:53.634Z,86.54
2018-03-07T07:16:55.381Z,85.87
2018-03-07T07:18:57.277Z,85.21
2018-03-07T07:21:00.257Z,86.25
2018-03-07T07:23:04.577Z,85.97
2018-03-07T07:25:06.267Z,85.49
2018-03-07T07:27:09.076Z,85.49
2018-03-07T07:29:11.669Z,85.40
2018-03-07T07:31:13.896Z,85.78
2018-03-07T07:33:15.729Z,86.25
2018-03-07T07:35:17.267Z,86.20
2018-03-07T07:37:18.920Z,85.44
2018-03-07T07:39:20.361Z,85.25
2018-03-07T07:41:21.827Z,84.78
2018-03-07T07:43:23.527Z,84.01
2018-03-07T07:45:25.215Z,84.49
2018-03-07T07:47:26.921Z,85.68
2018-03-07T07:49:28.696Z,86.25
2018-03-07T07:51:30.448Z,87.11
2018-03-07T07:53:32.305Z,87.77
2018-03-07T07:55:35.217Z,88.06
2018-03-07T07:57:36.773Z,88.48
2018-03-07T07:59:38.298Z,90.19
2018-03-07T08:01:39.848Z,89.58
2018-03-07T08:03:41.558Z,90.24
2018-03-07T08:05:43.309Z,89.10
2018-03-07T08:07:44.899Z,89.76
2018-03-07T08:09:46.479Z,88.06
2018-03-07T08:11:48.316Z,88.53
2018-03-07T08:13:50.019Z,89.00
2018-03-07T08:15:51.759Z,89.86
2018-03-07T08:17:53.435Z,90.05
2018-03-07T08:19:56.150Z,90.81
2018-03-07T08:21:58.167Z,90.71
2018-03-07T08:23:59.715Z,90.71
2018-03-07T08:26:01.210Z,91.09
2018-03-07T08:28:03.145Z,91.28
2018-03-07T08:30:04.837Z,91.24
2018-03-07T08:32:06.483Z,88.86
2018-03-07T08:34:08.115Z,87.24
2018-03-07T08:36:09.832Z,86.82
2018-03-07T08:38:11.429Z,85.58
2018-03-07T08:40:13.091Z,84.01
2018-03-07T08:42:14.880Z,83.34
2018-03-07T08:44:16.683Z,84.09
2018-03-07T08:46:18.429Z,81.18
2018-03-07T08:48:21.589Z,76.75
2018-03-07T08:50:23.359Z,75.23
2018-03-07T08:52:24.996Z,75.60
2018-03-07T08:54:27.603Z,75.42
2018-03-07T08:56:30.409Z,76.08
2018-03-07T08:58:32.622Z,75.89
2018-03-07T09:00:34.453Z,76.27
2018-03-07T09:02:36.057Z,78.04
2018-03-07T09:04:37.792Z,78.04
2018-03-07T09:06:39.475Z,78.56
2018-03-07T09:08:41.769Z,78.08
2018-03-07T09:10:43.765Z,77.98
2018-03-07T09:12:47.285Z,78.27
2018-03-07T09:14:48.759Z,77.98
2018-03-07T09:16:50.466Z,77.32
2018-03-07T09:18:52.181Z,76.65
2018-03-07T09:20:53.813Z,77.98
2018-03-07T09:22:55.513Z,77.61
2018-03-07T09:24:57.235Z,77.42
2018-03-07T09:27:00.313Z,77.70
2018-03-07T09:29:01.795Z,76.94
2018-03-07T09:31:03.458Z,76.84
2018-03-07T09:33:06.541Z,76.84
2018-03-07T09:35:08.213Z,77.32
2018-03-07T09:37:09.845Z,78.12
2018-03-07T09:39:11.968Z,77.74
2018-03-07T09:41:13.811Z,77.45
2018-03-07T09:43:17.119Z,77.26
2018-03-07T09:45:18.801Z,77.17
2018-03-07T09:47:20.477Z,77.59
2018-03-07T09:49:23.668Z,76.92
2018-03-07T09:51:26.718Z,77.01
2018-03-07T09:53:28.562Z,76.73
2018-03-07T09:55:32.037Z,76.35
2018-03-07T09:57:35.523Z,76.54
2018-03-07T09:59:37.239Z,75.78
2018-03-07T10:01:38.955Z,75.78
2018-03-07T10:03:40.693Z,75.20
2018-03-07T10:05:42.342Z,75.72
2018-03-07T10:07:45.557Z,74.77
2018-03-07T10:09:48.536Z,73.72
2018-03-07T10:11:50.231Z,73.62
2018-03-07T10:13:51.924Z,74.29
2018-03-07T10:15:53.589Z,73.24
2018-03-07T10:17:55.209Z,72.48
2018-03-07T10:19:56.856Z,72.48
2018-03-07T10:21:58.570Z,71.62
2018-03-07T10:24:00.261Z,71.52
2018-03-07T10:26:01.949Z,71.81
2018-03-07T10:28:03.668Z,70.42
2018-03-07T10:30:05.312Z,70.51
2018-03-07T10:32:06.937Z,69.46
2018-03-07T10:34:08.556Z,69.56
2018-03-07T10:36:10.339Z,68.26
2018-03-07T10:38:11.991Z,68.16
2018-03-07T10:40:13.714Z,68.63
2018-03-07T10:42:16.748Z,67.52
2018-03-07T10:44:19.915Z,67.24
2018-03-07T10:46:22.831Z,65.80
2018-03-07T10:48:24.528Z,65.14
2018-03-07T10:50:28.761Z,65.14
2018-03-07T10:52:31.800Z,64.28
2018-03-07T10:54:35.352Z,65.80
2018-03-07T10:56:36.876Z,64.47
2018-03-07T10:58:39.744Z,64.40
2018-03-07T11:00:41.355Z,63.60
2018-03-07T11:02:44.258Z,63.23
2018-03-07T11:04:45.961Z,63.99
2018-03-07T11:06:49.306Z,63.23
2018-03-07T11:08:50.920Z,63.23
2018-03-07T11:10:52.715Z,63.13
2018-03-07T11:12:54.364Z,62.94
2018-03-07T11:14:57.348Z,62.40
2018-03-07T11:16:58.926Z,59.69
2018-03-07T11:19:00.975Z,59.41
2018-03-07T11:21:02.661Z,58.86
2018-03-07T11:23:04.292Z,57.14
2018-03-07T11:25:06.024Z,55.99
2018-03-07T11:27:07.690Z,54.85
2018-03-07T11:29:09.355Z,56.09
2018-03-07T11:31:11.081Z,54.49
2018-03-07T11:33:12.712Z,55.74
2018-03-07T11:35:14.339Z,55.16
2018-03-07T11:37:17.398Z,56.12
2018-03-07T11:39:19.118Z,52.58
2018-03-07T11:41:22.031Z,51.46
2018-03-07T11:43:24.562Z,52.61
2018-03-07T11:45:27.785Z,55.29
2018-03-07T11:47:29.404Z,55.67
2018-03-07T11:49:31.064Z,56.08
2018-03-07T11:51:33.957Z,55.60
2018-03-07T11:53:35.611Z,54.26
2018-03-07T11:55:38.362Z,55.10
2018-03-07T11:57:41.118Z,55.10
2018-03-07T11:59:44.591Z,54.14
2018-03-07T12:01:46.275Z,54.61
2018-03-07T12:03:48.710Z,52.83
2018-03-07T12:05:50.370Z,50.05
2018-03-07T12:07:52.081Z,48.61
2018-03-07T12:09:53.786Z,49.31
2018-03-07T12:11:55.499Z,48.35
2018-03-07T12:13:57.101Z,48.42
2018-03-07T12:15:58.710Z,48.97
2018-03-07T12:18:00.306Z,50.57
2018-03-07T12:20:02.069Z,51.34
2018-03-07T12:22:04.565Z,53.18
2018-03-07T12:24:06.282Z,52.99
2018-03-07T12:26:08.084Z,53.75
2018-03-07T12:28:09.823Z,51.07
2018-03-07T12:30:11.513Z,50.50
2018-03-07T12:32:13.230Z,50.95
2018-03-07T12:34:14.919Z,51.81
2018-03-07T12:36:16.683Z,52.29
2018-03-07T12:38:18.479Z,52.87
2018-03-07T12:40:20.967Z,52.20
2018-03-07T12:42:23.408Z,52.67
2018-03-07T12:44:25.868Z,53.63
2018-03-07T12:46:27.507Z,54.02
2018-03-07T12:48:30.023Z,53.92
2018-03-07T12:50:31.650Z,53.53
2018-03-07T12:52:34.061Z,54.85
2018-03-07T12:54:35.760Z,53.80
2018-03-07T12:56:37.457Z,53.89
2018-03-07T12:58:39.271Z,53.80
2018-03-07T13:00:40.767Z,55.20
2018-03-07T13:02:43.864Z,56.18
2018-03-07T13:04:45.759Z,56.09
2018-03-07T13:06:47.515Z,56.47
2018-03-07T13:08:49.422Z,55.99
2018-03-07T13:10:51.878Z,55.71
2018-03-07T13:12:54.294Z,54.94
2018-03-07T13:14:56.006Z,55.04
2018-03-07T13:16:57.787Z,54.66
2018-03-07T13:18:59.476Z,54.85
2018-03-07T13:21:01.167Z,55.13
2018-03-07T13:23:02.831Z,54.27
2018-03-07T13:25:04.539Z,54.94
2018-03-07T13:27:06.239Z,55.90
2018-03-07T13:29:08.000Z,55.42
2018-03-07T13:31:09.708Z,55.32
2018-03-07T13:33:11.556Z,55.99
2018-03-07T13:35:13.127Z,55.61
2018-03-07T13:37:14.785Z,55.71
2018-03-07T13:39:16.737Z,55.87
2018-03-07T13:41:18.389Z,55.58
2018-03-07T13:43:20.151Z,56.63
2018-03-07T13:45:23.472Z,55.58
2018-03-07T13:47:25.179Z,56.16
2018-03-07T13:49:26.914Z,56.16
2018-03-07T13:51:28.640Z,55.96
2018-03-07T13:53:31.376Z,56.06
2018-03-07T13:55:33.933Z,54.91
2018-03-07T13:57:35.543Z,55.20
2018-03-07T13:59:37.150Z,55.77
2018-03-07T14:01:39.874Z,55.08
2018-03-07T14:03:41.900Z,54.89
2018-03-07T14:05:43.352Z,55.40
2018-03-07T14:07:45.036Z,54.89
2018-03-07T14:09:46.668Z,55.08
2018-03-07T14:11:48.371Z,54.70
2018-03-07T14:13:50.099Z,54.99
2018-03-07T14:15:51.750Z,54.79
2018-03-07T14:17:53.396Z,54.60
2018-03-07T14:19:55.140Z,54.96
2018-03-07T14:21:56.826Z,55.46
2018-03-07T14:23:59.299Z,55.15
2018-03-07T14:26:02.013Z,57.24
2018-03-07T14:28:03.619Z,60.39
2018-03-07T14:30:05.371Z,63.04
2018-03-07T14:32:07.046Z,64.47
2018-03-07T14:34:08.722Z,66.53
2018-03-07T14:36:10.381Z,67.77
2018-03-07T14:38:12.058Z,66.53
2018-03-07T14:40:13.767Z,63.54
2018-03-07T14:42:15.490Z,64.78
2018-03-07T14:44:17.417Z,65.55
2018-03-07T14:46:19.061Z,66.37
2018-03-07T14:48:20.754Z,66.37
2018-03-07T14:50:22.499Z,68.37
2018-03-07T14:52:24.190Z,70.81
2018-03-07T14:54:25.836Z,71.47
2018-03-07T14:56:27.479Z,70.72
2018-03-07T14:58:30.512Z,71.19
2018-03-07T15:00:32.067Z,74.04
2018-03-07T15:02:33.683Z,76.04
2018-03-07T15:04:36.371Z,79.19
2018-03-07T15:06:38.000Z,80.90
2018-03-07T15:08:39.741Z,80.80
2018-03-07T15:10:41.218Z,81.85
2018-03-07T15:12:42.951Z,81.28
2018-03-07T15:14:44.644Z,82.80
2018-03-07T15:16:46.329Z,83.56
2018-03-07T15:18:48.535Z,84.33
2018-03-07T15:20:49.999Z,86.27
2018-03-07T15:22:51.446Z,85.70
2018-03-07T15:24:52.902Z,85.32
2018-03-07T15:26:54.587Z,85.70
2018-03-07T15:28:56.733Z,86.65
2018-03-07T15:30:58.440Z,85.93
2018-03-07T15:33:00.627Z,85.84
2018-03-07T15:35:02.365Z,85.08
2018-03-07T15:37:03.921Z,84.50
2018-03-07T15:39:05.611Z,81.93
2018-03-07T15:41:07.302Z,81.98
2018-03-07T15:43:08.921Z,82.69
2018-03-07T15:45:10.433Z,81.26
2018-03-07T15:47:12.136Z,82.03
2018-03-07T15:49:14.220Z,82.56
2018-03-07T15:51:16.246Z,81.79
2018-03-07T15:53:17.933Z,82.18
2018-03-07T15:55:19.566Z,82.93
2018-03-07T15:57:21.306Z,84.46
2018-03-07T15:59:22.982Z,84.46
2018-03-07T16:01:24.676Z,84.84
2018-03-07T16:03:26.445Z,84.84
2018-03-07T16:05:28.101Z,84.84
2018-03-07T16:07:29.682Z,84.94
2018-03-07T16:09:31.579Z,85.03
2018-03-07T16:11:33.212Z,85.03
2018-03-07T16:13:34.889Z,84.84
2018-03-07T16:15:36.370Z,84.36
2018-03-07T16:17:37.844Z,84.50
2018-03-07T16:19:39.481Z,84.08
2018-03-07T16:21:41.493Z,83.61
2018-03-07T16:23:43.190Z,83.32
2018-03-07T16:25:44.898Z,83.45
2018-03-07T16:27:47.077Z,84.22
2018-03-07T16:29:48.760Z,84.36
2018-03-07T16:31:50.790Z,84.17
2018-03-07T16:33:52.438Z,83.70
2018-03-07T16:35:54.095Z,84.31
2018-03-07T16:37:55.849Z,83.98
2018-03-07T16:39:57.980Z,84.27
2018-03-07T16:41:59.646Z,85.13
2018-03-07T16:44:01.370Z,84.60
2018-03-07T16:46:03.088Z,83.93
2018-03-07T16:48:04.781Z,83.98
2018-03-07T16:50:06.488Z,84.17
2018-03-07T16:52:08.559Z,84.08
2018-03-07T16:54:10.048Z,84.22
2018-03-07T16:56:11.574Z,84.17
2018-03-07T16:58:13.796Z,83.41
2018-03-07T17:00:15.378Z,84.27
2018-03-07T17:02:17.317Z,84.27
2018-03-07T17:04:18.983Z,85.03
2018-03-07T17:06:20.747Z,86.65
2018-03-07T17:08:22.933Z,86.99
2018-03-07T17:10:24.610Z,86.61
2018-03-07T17:12:26.313Z,85.94
2018-03-07T17:14:27.953Z,86.51
2018-03-07T17:16:29.690Z,86.27
2018-03-07T17:18:31.344Z,86.42
2018-03-07T17:20:33.042Z,87.46
2018-03-07T17:22:35.322Z,87.60
2018-03-07T17:24:36.829Z,87.41
2018-03-07T17:26:38.252Z,87.23
2018-03-07T17:28:39.895Z,86.84
2018-03-07T17:30:41.543Z,86.65
2018-03-07T17:32:43.595Z,85.13
2018-03-07T17:34:45.643Z,85.13
2018-03-07T17:36:47.909Z,85.03
2018-03-07T17:38:49.467Z,86.36
2018-03-07T17:40:50.892Z,85.99
2018-03-07T17:42:52.529Z,86.18
2018-03-07T17:44:54.954Z,85.89
2018-03-07T17:46:56.989Z,84.70
2018-03-07T17:48:58.583Z,86.04
2018-03-07T17:51:00.339Z,86.32
2018-03-07T17:53:01.999Z,87.18
2018-03-07T17:55:04.148Z,87.75
2018-03-07T17:57:06.337Z,87.85
2018-03-07T17:59:07.976Z,88.37
2018-03-07T18:01:09.747Z,88.13
2018-03-07T18:03:11.388Z,88.79
2018-03-07T18:05:13.064Z,88.99
2018-03-07T18:07:14.637Z,87.56
2018-03-07T18:09:16.326Z,87.37
2018-03-07T18:11:17.817Z,87.27
2018-03-07T18:13:19.298Z,87.18
2018-03-07T18:15:20.976Z,87.37
2018-03-07T18:17:22.493Z,87.56
2018-03-07T18:19:24.060Z,87.18
2018-03-07T18:21:25.711Z,87.65
2018-03-07T18:23:27.487Z,87.75
2018-03-07T18:25:29.165Z,87.94
2018-03-07T18:27:30.844Z,88.79
2018-03-07T18:29:32.639Z,87.94
2018-03-07T18:31:34.264Z,88.51
2018-03-07T18:33:36.051Z,87.27
2018-03-07T18:35:37.764Z,87.46
2018-03-07T18:37:39.426Z,87.56
2018-03-07T18:39:41.169Z,87.46
2018-03-07T18:41:42.792Z,87.65
2018-03-07T18:43:44.450Z,87.46
2018-03-07T18:45:46.055Z,87.37
2018-03-07T18:47:48.032Z,86.99
2018-03-07T18:49:49.626Z,87.08
2018-03-07T18:51:51.125Z,87.46
2018-03-07T18:53:52.877Z,87.65
2018-03-07T18:55:54.540Z,87.56
2018-03-07T18:57:56.654Z,87.46
2018-03-07T18:59:58.262Z,87.37
2018-03-07T19:01:59.764Z,86.99
2018-03-07T19:04:01.204Z,87.08
2018-03-07T19:06:02.660Z,87.27
2018-03-07T19:08:04.110Z,86.99
2018-03-07T19:10:08.323Z,87.27
2018-03-07T19:12:11.545Z,87.18
2018-03-07T19:14:13.018Z,87.27
2018-03-07T19:16:16.127Z,87.65
2018-03-07T19:18:17.872Z,87.18
2018-03-07T19:20:19.341Z,87.18
2018-03-07T19:22:21.510Z,87.37
2018-03-07T19:24:23.901Z,87.56
2018-03-07T19:26:25.444Z,87.85
2018-03-07T19:28:26.944Z,87.08
2018-03-07T19:30:28.583Z,87.94
2018-03-07T19:32:31.026Z,87.46
2018-03-07T19:34:32.683Z,87.46
2018-03-07T19:36:34.399Z,87.65
2018-03-07T19:38:36.069Z,87.65
2018-03-07T19:40:38.383Z,87.94
2018-03-07T19:42:40.209Z,87.85
2018-03-07T19:44:41.929Z,88.42
2018-03-07T19:46:43.501Z,87.75
2018-03-07T19:48:45.903Z,88.32
2018-03-07T19:50:50.959Z,88.13
2018-03-07T19:52:55.102Z,88.13
2018-03-07T19:54:59.725Z,88.42
2018-03-07T19:57:02.948Z,88.70
2018-03-07T19:59:04.644Z,89.65
2018-03-07T20:01:06.313Z,88.99
2018-03-07T20:03:08.837Z,89.37
2018-03-07T20:05:12.027Z,89.37
2018-03-07T20:07:13.467Z,89.27
2018-03-07T20:09:15.471Z,89.37
2018-03-07T20:11:17.435Z,88.04
2018-03-07T20:13:20.614Z,89.18
2018-03-07T20:15:22.077Z,89.84
2018-03-07T20:17:25.014Z,88.89
2018-03-07T20:19:28.429Z,89.94
2018-03-07T20:21:30.581Z,89.84
2018-03-07T20:23:32.838Z,89.56
2018-03-07T20:25:33.478Z,89.37
2018-03-07T20:27:34.976Z,89.32
2018-03-07T20:29:39.444Z,89.89
2018-03-07T20:31:40.905Z,90.66
2018-03-07T20:33:42.370Z,91.42
2018-03-07T20:35:43.807Z,91.94
2018-03-07T20:37:46.856Z,92.41
2018-03-07T20:39:49.438Z,92.70
2018-03-07T20:41:51.507Z,93.37
2018-03-07T20:43:53.065Z,94.03
2018-03-07T20:45:54.531Z,95.51
2018-03-07T20:47:56.913Z,95.89
2018-03-07T20:49:59.283Z,96.17
2018-03-07T20:52:01.835Z,96.26
2018-03-07T20:54:04.343Z,96.45
2018-03-07T20:56:05.367Z,96.36
2018-03-07T20:58:07.030Z,96.45
2018-03-07T21:00:08.630Z,96.55
2018-03-07T21:02:10.298Z,96.74
2018-03-07T21:04:12.163Z,97.50
2018-03-07T21:06:13.788Z,97.12
2018-03-07T21:08:15.425Z,98.36
2018-03-07T21:10:17.215Z,98.45
2018-03-07T21:12:18.906Z,98.45
2018-03-07T21:14:20.577Z,98.55
2018-03-07T21:16:22.897Z,98.64
2018-03-07T21:18:24.509Z,98.93
2018-03-07T21:20:27.963Z,99.11
2018-03-07T21:22:29.977Z,98.74
2018-03-07T21:24:33.252Z,97.97
2018-03-07T21:26:34.985Z,98.55
2018-03-07T21:28:36.774Z,97.50
2018-03-07T21:30:38.467Z,96.45
2018-03-07T21:32:40.138Z,96.45
2018-03-07T21:34:41.847Z,97.69
2018-03-07T21:36:43.534Z,97.12
2018-03-07T21:38:45.482Z,97.12
2018-03-07T21:40:47.173Z,97.97
2018-03-07T21:42:48.849Z,98.45
2018-03-07T21:44:50.562Z,98.07
2018-03-07T21:46:52.227Z,98.83
2018-03-07T21:48:53.906Z,99.40
2018-03-07T21:50:55.601Z,99.30
2018-03-07T21:52:57.460Z,98.93
2018-03-07T21:54:59.171Z,99.50
2018-03-07T21:57:01.161Z,99.50
2018-03-07T21:59:02.962Z,98.74
2018-03-07T22:01:04.530Z,98.55
2018-03-07T22:03:06.295Z,98.45
2018-03-07T22:05:07.998Z,98.26
2018-03-07T22:07:09.716Z,98.26
2018-03-07T22:09:11.347Z,98.55
2018-03-07T22:11:13.016Z,98.55
2018-03-07T22:13:14.776Z,98.55
2018-03-07T22:15:16.529Z,99.02
2018-03-07T22:17:18.282Z,99.21
2018-03-07T22:19:20.085Z,99.50
2018-03-07T22:21:21.839Z,99.88
2018-03-07T22:23:23.504Z,99.50
2018-03-07T22:25:25.187Z,99.99
2018-03-07T22:27:26.960Z,99.97
2018-03-07T22:29:28.713Z,99.78
2018-03-07T22:31:30.575Z,99.88
2018-03-07T22:33:32.277Z,99.99
2018-03-07T22:35:33.914Z,99.99
2018-03-07T22:37:35.547Z,99.99
2018-03-07T22:39:37.233Z,99.99
2018-03-07T22:41:39.060Z,99.99
2018-03-07T22:43:40.745Z,99.99
2018-03-07T22:45:42.436Z,99.99
2018-03-07T22:47:44.184Z,99.99
2018-03-07T22:49:45.907Z,99.99
2018-03-07T22:51:47.612Z,99.99
2018-03-07T22:53:49.283Z,99.99
2018-03-07T22:55:51.147Z,99.99
2018-03-07T22:57:52.931Z,99.99
2018-03-07T22:59:54.560Z,99.99
2018-03-07T23:01:56.304Z,99.99
2018-03-07T23:03:57.928Z,99.99
2018-03-07T23:05:59.632Z,99.99
2018-03-07T23:08:01.443Z,99.99
2018-03-07T23:10:03.022Z,99.99
2018-03-07T23:12:04.726Z,99.99
2018-03-07T23:14:06.558Z,99.99
2018-03-07T23:16:08.256Z,99.99
2018-03-07T23:18:09.995Z,99.99
2018-03-07T23:20:11.659Z,99.99
2018-03-07T23:22:13.318Z,99.99
2018-03-07T23:24:15.287Z,99.99
2018-03-07T23:26:17.021Z,99.99
2018-03-07T23:28:18.817Z,99.99
2018-03-07T23:30:20.481Z,99.99
2018-03-07T23:32:22.246Z,99.99
2018-03-07T23:34:23.938Z,99.99
2018-03-07T23:36:25.666Z,99.99
2018-03-07T23:38:27.306Z,99.99
2018-03-07T23:40:29.029Z,99.99
2018-03-07T23:42:30.834Z,99.99
2018-03-07T23:44:32.525Z,99.99
2018-03-07T23:46:34.255Z,99.99
2018-03-07T23:48:35.912Z,99.99
2018-03-07T23:50:37.637Z,99.99
2018-03-07T23:52:39.426Z,99.99
2018-03-07T23:54:41.223Z,99.99
2018-03-07T23:56:42.906Z,99.99
2018-03-07T23:58:44.549Z,99.99
